Flight Number: EUR3087 Duration: 11:30
Departure: Bangkok Suvarnabhumi (VTBS) at 06:30 Distance: 5167 Nm
Arrival: Gatwick Airport (EGKK) at 18:00 Equipment: B747

Weather Information
Chon Buri, Thailand (VTBS) 13-22N 100-59E 2M May 24, 2018 - 05:30 PM EDT / 2018.05.24 2130 UTC
Wind: from the SE (130 degrees) at 7 MPH (6 KT) (direction variable):0
Visibility: 5 mile(s):0
Sky conditions: partly cloudy Temperature: 78 F (26 C) Dew Point: 73 F (23 C) Relative Humidity: 83% Pressure (altimeter): 29.77 in. Hg (1008 hPa)
ob: VTBS 242130Z 13006KT 100V160 9000 FEW020 SCT100 26/23 Q1008 NOSIG cycle: 21
Sunrise: 22:51 Sunset: 11:36 (UTC)

London / Gatwick Airport, United Kingdom (EGKK) 51-09N 000-11W 0M May 24, 2018 - 04:50 PM EDT / 2018.05.24 2050 UTC
Wind: Variable at 5 MPH (4 KT):0
Visibility: 1 mile(s):0
Sky conditions: mostly clear Weather: mist Temperature: 59 F (15 C) Dew Point: 57 F (14 C) Relative Humidity: 93% Pressure (altimeter): 30.06 in. Hg (1018 hPa)
ob: EGKK 242050Z VRB04KT 3000 BR FEW004 15/14 Q1018 cycle: 21
Sunrise: 04:02 Sunset: 19:52 (UTC)

TAF:2018/05/24 20:44 TAF AMD EGKK 242035Z 2420/2524 02008KT 7000 BKN045 TEMPO 2420/2524 2000 RADZ BKN014 BECMG 2500/2503 BKN008 PROB30 2500/2508 3000 BR BKN004 BECMG 2508/2511 9999 SCT025

This route has never been flown.

Route map